createdAt,value
2022-12-24T00:03:29.970Z,10.23
2022-12-24T00:09:33.638Z,12.88
2022-12-24T00:15:38.422Z,15.27
2022-12-24T00:21:41.784Z,15.40
2022-12-24T00:27:45.483Z,11.27
2022-12-24T00:33:50.438Z,7.80
2022-12-24T00:39:53.829Z,15.18
2022-12-24T00:45:57.563Z,8.70
2022-12-24T00:52:03.190Z,9.52
2022-12-24T00:58:06.578Z,11.25
2022-12-24T01:04:27.507Z,9.55
2022-12-24T01:10:32.474Z,18.73
2022-12-24T01:16:36.121Z,18.23
2022-12-24T01:22:39.626Z,17.85
2022-12-24T01:28:44.547Z,19.88
2022-12-24T01:34:48.193Z,17.55
2022-12-24T01:41:09.428Z,19.15
2022-12-24T01:47:16.431Z,15.93
2022-12-24T01:53:19.993Z,14.20
2022-12-24T01:59:24.026Z,14.52
2022-12-24T02:05:30.555Z,10.32
2022-12-24T02:11:33.937Z,17.00
2022-12-24T02:17:42.004Z,10.02
2022-12-24T02:23:55.276Z,10.57
2022-12-24T02:30:05.616Z,9.80
2022-12-24T02:36:13.410Z,11.55
2022-12-24T02:42:19.241Z,8.50
2022-12-24T02:48:24.417Z,12.35
2022-12-24T02:54:28.214Z,16.90
2022-12-24T03:00:37.390Z,11.57
2022-12-24T03:06:45.509Z,11.25
2022-12-24T03:12:51.197Z,20.75
2022-12-24T03:18:55.591Z,13.93
2022-12-24T03:25:00.376Z,16.13
2022-12-24T03:31:05.246Z,17.30
2022-12-24T03:37:08.860Z,16.75
2022-12-24T03:43:13.773Z,15.57
2022-12-24T03:49:17.397Z,19.80
2022-12-24T03:55:20.784Z,20.58
2022-12-24T04:01:25.815Z,16.38
2022-12-24T04:07:29.305Z,22.65
2022-12-24T04:13:32.855Z,16.80
2022-12-24T04:19:37.870Z,17.15
2022-12-24T04:25:41.605Z,13.73
2022-12-24T04:31:45.081Z,15.85
2022-12-24T04:37:49.900Z,11.88
2022-12-24T04:43:53.786Z,20.63
2022-12-24T04:49:57.228Z,14.65
2022-12-24T04:56:02.389Z,17.80
2022-12-24T05:02:06.011Z,15.57
2022-12-24T05:08:09.867Z,20.83
2022-12-24T05:14:14.650Z,16.85
2022-12-24T05:20:18.246Z,12.10
2022-12-24T05:26:25.394Z,18.25
2022-12-24T05:32:30.167Z,14.43
2022-12-24T05:38:33.584Z,14.27
2022-12-24T05:44:38.678Z,21.63
2022-12-24T05:50:43.699Z,26.80
2022-12-24T05:56:47.135Z,17.10
2022-12-24T06:02:50.644Z,22.05
2022-12-24T06:08:56.704Z,16.15
2022-12-24T06:15:00.174Z,15.57
2022-12-24T06:21:04.263Z,21.40
2022-12-24T06:27:09.091Z,16.02
2022-12-24T06:33:12.445Z,21.70
2022-12-24T06:39:15.853Z,22.80
2022-12-24T06:45:20.662Z,15.05
2022-12-24T06:51:24.493Z,14.23
2022-12-24T06:57:27.889Z,12.52
2022-12-24T07:03:32.780Z,20.17
2022-12-24T07:09:36.601Z,20.55
2022-12-24T07:15:40.118Z,16.13
2022-12-24T07:21:45.034Z,17.42
2022-12-24T07:27:48.426Z,16.90
2022-12-24T07:33:51.818Z,21.42
2022-12-24T07:39:56.568Z,18.45
2022-12-24T07:46:00.011Z,21.10
2022-12-24T07:52:03.438Z,15.25
2022-12-24T07:58:08.222Z,13.73
2022-12-24T08:04:11.841Z,18.48
2022-12-24T08:10:15.263Z,19.52
2022-12-24T08:16:20.123Z,22.05
2022-12-24T08:22:23.567Z,19.70
2022-12-24T08:28:27.040Z,17.23
2022-12-24T08:34:31.981Z,5.85
2022-12-24T08:40:35.457Z,14.40
2022-12-24T08:46:39.238Z,18.40
2022-12-24T08:52:44.045Z,17.38
2022-12-24T08:58:48.859Z,22.10
2022-12-24T09:04:52.282Z,20.92
2022-12-24T09:10:57.350Z,16.40
2022-12-24T09:17:01.206Z,14.60
2022-12-24T09:23:04.869Z,13.95
2022-12-24T09:29:09.886Z,16.88
2022-12-24T09:35:13.550Z,20.45
2022-12-24T09:41:17.811Z,18.95
2022-12-24T09:47:26.987Z,18.70
2022-12-24T09:53:35.557Z,21.45
2022-12-24T09:59:42.861Z,22.65
2022-12-24T10:05:50.961Z,17.58
2022-12-24T10:11:58.365Z,20.05
2022-12-24T10:18:19.943Z,18.92
2022-12-24T10:24:26.263Z,26.90
2022-12-24T10:30:30.073Z,23.05
2022-12-24T10:36:34.059Z,24.35
2022-12-24T10:42:50.334Z,26.60
2022-12-24T10:48:56.872Z,21.00
2022-12-24T10:55:11.155Z,22.90
2022-12-24T11:01:16.047Z,22.75
2022-12-24T11:07:21.351Z,20.73
2022-12-24T11:13:37.499Z,20.75
2022-12-24T11:19:42.949Z,22.08
2022-12-24T11:25:49.834Z,24.27
2022-12-24T11:31:54.009Z,18.67
2022-12-24T11:38:11.443Z,26.60
2022-12-24T11:44:14.915Z,16.63
2022-12-24T11:50:26.493Z,22.85
2022-12-24T11:56:34.211Z,20.77
2022-12-24T12:02:40.055Z,16.52
2022-12-24T12:08:44.138Z,22.13
2022-12-24T12:14:52.043Z,16.70
2022-12-24T12:20:58.337Z,22.42
2022-12-24T12:27:06.265Z,23.20
2022-12-24T12:33:16.726Z,24.73
2022-12-24T12:39:20.369Z,23.77
2022-12-24T12:45:31.071Z,20.75
2022-12-24T12:51:39.947Z,18.13
2022-12-24T12:57:43.396Z,21.65
2022-12-24T13:04:05.756Z,29.17
2022-12-24T13:10:22.168Z,23.02
2022-12-24T13:16:46.300Z,18.58
2022-12-24T13:22:50.883Z,18.10
2022-12-24T13:28:55.773Z,19.33
2022-12-24T13:35:00.407Z,20.13
2022-12-24T13:41:22.725Z,23.90
2022-12-24T13:47:32.291Z,17.67
2022-12-24T13:53:40.579Z,23.70
2022-12-24T13:59:44.247Z,19.58
2022-12-24T14:05:50.546Z,23.55
2022-12-24T14:12:16.578Z,13.80
2022-12-24T14:18:20.659Z,17.75
2022-12-24T14:24:26.708Z,18.73
2022-12-24T14:30:30.737Z,20.95
2022-12-24T14:36:34.249Z,14.18
2022-12-24T14:42:43.373Z,16.83
2022-12-24T14:48:50.603Z,17.50
2022-12-24T14:54:54.748Z,19.00
2022-12-24T15:01:00.617Z,18.33
2022-12-24T15:07:06.241Z,15.57
2022-12-24T15:13:11.308Z,23.70
2022-12-24T15:19:22.109Z,16.40
2022-12-24T15:25:26.516Z,14.35
2022-12-24T15:31:31.318Z,21.65
2022-12-24T15:37:38.299Z,20.70
2022-12-24T15:43:42.426Z,15.13
2022-12-24T15:49:48.537Z,23.35
2022-12-24T15:56:04.193Z,16.90
2022-12-24T16:02:29.951Z,16.00
2022-12-24T16:08:34.666Z,14.45
2022-12-24T16:14:41.522Z,18.38
2022-12-24T16:20:48.468Z,22.58
2022-12-24T16:26:53.402Z,22.95
2022-12-24T16:32:58.207Z,25.00
2022-12-24T16:39:19.109Z,23.20
2022-12-24T16:45:22.681Z,20.67
2022-12-24T16:51:27.433Z,21.15
2022-12-24T16:57:30.950Z,23.88
2022-12-24T17:03:34.548Z,21.13
2022-12-24T17:09:39.799Z,21.73
2022-12-24T17:15:43.549Z,13.70
2022-12-24T17:21:47.397Z,18.38
2022-12-24T17:27:52.152Z,14.43
2022-12-24T17:33:55.678Z,17.98
2022-12-24T17:39:59.380Z,19.38
2022-12-24T17:46:07.362Z,18.25
2022-12-24T17:52:11.576Z,21.52
2022-12-24T17:58:15.421Z,16.92
2022-12-24T18:04:20.227Z,16.77
2022-12-24T18:10:23.633Z,16.15
2022-12-24T18:16:28.064Z,16.92
2022-12-24T18:22:32.872Z,13.60
2022-12-24T18:28:36.584Z,16.17
2022-12-24T18:34:40.151Z,19.95
2022-12-24T18:40:44.927Z,16.70
2022-12-24T18:46:48.568Z,16.20
2022-12-24T18:52:52.040Z,33.70
2022-12-24T18:58:57.440Z,30.65
2022-12-24T19:05:00.861Z,19.30
2022-12-24T19:11:04.756Z,18.05
2022-12-24T19:17:09.641Z,9.45
2022-12-24T19:23:13.026Z,14.15
2022-12-24T19:29:16.450Z,12.45
2022-12-24T19:35:21.244Z,10.15
2022-12-24T19:41:25.766Z,13.93
2022-12-24T19:47:29.628Z,20.20
2022-12-24T19:53:34.514Z,16.75
2022-12-24T19:59:39.424Z,11.02
2022-12-24T20:05:42.946Z,13.73
2022-12-24T20:11:47.665Z,8.75
2022-12-24T20:17:54.027Z,13.23
2022-12-24T20:23:57.683Z,9.38
2022-12-24T20:30:02.774Z,12.60
2022-12-24T20:36:06.532Z,9.68
2022-12-24T20:42:09.935Z,8.40
2022-12-24T20:48:14.677Z,11.35
2022-12-24T20:54:18.635Z,9.77
2022-12-24T21:00:22.775Z,8.43
2022-12-24T21:06:27.688Z,12.10
2022-12-24T21:12:48.510Z,8.88
2022-12-24T21:18:51.967Z,10.02
2022-12-24T21:24:56.768Z,11.13
2022-12-24T21:31:00.321Z,12.80
2022-12-24T21:37:03.748Z,11.07
2022-12-24T21:43:08.533Z,11.63
2022-12-24T21:49:30.241Z,12.38
2022-12-24T21:55:33.850Z,10.68
2022-12-24T22:01:38.681Z,10.38
2022-12-24T22:08:00.665Z,16.63
2022-12-24T22:14:04.136Z,12.85
2022-12-24T22:20:10.491Z,9.40
2022-12-24T22:26:14.128Z,9.35
2022-12-24T22:32:17.520Z,9.95
2022-12-24T22:38:22.291Z,5.60
2022-12-24T22:44:25.814Z,5.88
2022-12-24T22:50:29.239Z,6.00
2022-12-24T22:56:40.484Z,5.18
2022-12-24T23:02:44.684Z,5.93
2022-12-24T23:08:48.374Z,7.07
2022-12-24T23:14:59.960Z,5.47
2022-12-24T23:21:06.229Z,7.30
2022-12-24T23:27:09.933Z,5.45
2022-12-24T23:33:14.883Z,10.55
2022-12-24T23:39:18.296Z,8.10
2022-12-24T23:45:21.713Z,7.65
2022-12-24T23:51:29.268Z,4.50
2022-12-24T23:57:32.837Z,7.88
